sensor_id;sensor_type;location;lat;lon;timestamp;pressure;altitude;pressure_sealevel;temperature;humidity
35848;BME280;22332;51.954;20.118;2024-02-28T00:00:11;100106.46;;;9.96;89.50
35848;BME280;22332;51.954;20.118;2024-02-28T00:03:37;100102.29;;;9.93;89.28
35848;BME280;22332;51.954;20.118;2024-02-28T00:06:43;100096.28;;;9.98;89.12
35848;BME280;22332;51.954;20.118;2024-02-28T00:09:48;100093.33;;;10.08;88.44
35848;BME280;22332;51.954;20.118;2024-02-28T00:12:54;100092.92;;;10.15;88.87
35848;BME280;22332;51.954;20.118;2024-02-28T00:15:59;100095.78;;;10.19;88.60
35848;BME280;22332;51.954;20.118;2024-02-28T00:19:05;100100.04;;;10.21;88.91
35848;BME280;22332;51.954;20.118;2024-02-28T00:22:11;100104.48;;;10.22;88.71
35848;BME280;22332;51.954;20.118;2024-02-28T00:25:16;100108.50;;;10.20;88.25
35848;BME280;22332;51.954;20.118;2024-02-28T00:28:22;100107.35;;;10.18;88.38
35848;BME280;22332;51.954;20.118;2024-02-28T00:31:28;100111.27;;;10.22;88.53
35848;BME280;22332;51.954;20.118;2024-02-28T00:34:33;100109.66;;;10.24;88.26
35848;BME280;22332;51.954;20.118;2024-02-28T00:37:39;100106.55;;;10.23;88.64
35848;BME280;22332;51.954;20.118;2024-02-28T00:40:45;100103.02;;;10.25;88.54
35848;BME280;22332;51.954;20.118;2024-02-28T00:43:50;100103.13;;;10.27;88.68
35848;BME280;22332;51.954;20.118;2024-02-28T00:46:56;100109.67;;;10.30;88.41
35848;BME280;22332;51.954;20.118;2024-02-28T00:50:02;100108.20;;;10.32;88.46
35848;BME280;22332;51.954;20.118;2024-02-28T00:53:08;100111.61;;;10.35;88.43
35848;BME280;22332;51.954;20.118;2024-02-28T00:56:14;100110.00;;;10.33;88.34
35848;BME280;22332;51.954;20.118;2024-02-28T00:59:19;100116.36;;;10.30;88.30
35848;BME280;22332;51.954;20.118;2024-02-28T01:02:25;100121.30;;;10.29;88.27
35848;BME280;22332;51.954;20.118;2024-02-28T01:05:34;100119.60;;;10.28;88.15
35848;BME280;22332;51.954;20.118;2024-02-28T01:08:40;100121.23;;;10.28;88.29
35848;BME280;22332;51.954;20.118;2024-02-28T01:11:45;100120.66;;;10.28;88.00
35848;BME280;22332;51.954;20.118;2024-02-28T01:14:51;100118.34;;;10.28;88.42
35848;BME280;22332;51.954;20.118;2024-02-28T01:17:57;100120.49;;;10.28;88.13
35848;BME280;22332;51.954;20.118;2024-02-28T01:21:03;100123.73;;;10.26;88.19
35848;BME280;22332;51.954;20.118;2024-02-28T01:24:08;100127.38;;;10.23;88.74
35848;BME280;22332;51.954;20.118;2024-02-28T01:27:14;100134.06;;;10.21;88.40
35848;BME280;22332;51.954;20.118;2024-02-28T01:30:20;100138.02;;;10.23;88.59
35848;BME280;22332;51.954;20.118;2024-02-28T01:33:25;100136.02;;;10.24;88.95
35848;BME280;22332;51.954;20.118;2024-02-28T01:36:31;100140.20;;;10.26;88.85
35848;BME280;22332;51.954;20.118;2024-02-28T01:39:36;100143.34;;;10.27;89.27
35848;BME280;22332;51.954;20.118;2024-02-28T01:42:42;100144.57;;;10.29;89.12
35848;BME280;22332;51.954;20.118;2024-02-28T01:45:47;100142.65;;;10.32;89.09
35848;BME280;22332;51.954;20.118;2024-02-28T01:48:54;100139.09;;;10.36;89.16
35848;BME280;22332;51.954;20.118;2024-02-28T01:52:00;100139.92;;;10.40;89.24
35848;BME280;22332;51.954;20.118;2024-02-28T01:55:07;100140.20;;;10.42;89.53
35848;BME280;22332;51.954;20.118;2024-02-28T01:58:13;100138.16;;;10.40;89.46
35848;BME280;22332;51.954;20.118;2024-02-28T02:01:19;100138.18;;;10.39;89.28
35848;BME280;22332;51.954;20.118;2024-02-28T02:04:28;100139.95;;;10.40;89.56
35848;BME280;22332;51.954;20.118;2024-02-28T02:07:34;100136.56;;;10.41;89.54
35848;BME280;22332;51.954;20.118;2024-02-28T02:10:40;100138.72;;;10.43;89.64
35848;BME280;22332;51.954;20.118;2024-02-28T02:13:53;100136.27;;;10.46;89.61
35848;BME280;22332;51.954;20.118;2024-02-28T02:16:57;100134.79;;;10.47;89.49
35848;BME280;22332;51.954;20.118;2024-02-28T02:20:03;100131.13;;;10.46;89.93
35848;BME280;22332;51.954;20.118;2024-02-28T02:23:10;100127.95;;;10.42;89.61
35848;BME280;22332;51.954;20.118;2024-02-28T02:26:17;100126.03;;;10.42;89.93
35848;BME280;22332;51.954;20.118;2024-02-28T02:29:22;100119.11;;;10.45;89.85
35848;BME280;22332;51.954;20.118;2024-02-28T02:32:28;100117.36;;;10.47;89.98
35848;BME280;22332;51.954;20.118;2024-02-28T02:35:34;100116.09;;;10.45;89.88
35848;BME280;22332;51.954;20.118;2024-02-28T02:38:39;100112.21;;;10.45;89.76
35848;BME280;22332;51.954;20.118;2024-02-28T02:41:45;100110.69;;;10.46;90.09
35848;BME280;22332;51.954;20.118;2024-02-28T02:44:51;100109.72;;;10.47;90.17
35848;BME280;22332;51.954;20.118;2024-02-28T02:47:57;100107.20;;;10.49;89.82
35848;BME280;22332;51.954;20.118;2024-02-28T02:51:03;100110.78;;;10.50;90.20
35848;BME280;22332;51.954;20.118;2024-02-28T02:54:08;100110.27;;;10.50;89.80
35848;BME280;22332;51.954;20.118;2024-02-28T02:57:14;100108.58;;;10.49;90.03
35848;BME280;22332;51.954;20.118;2024-02-28T03:00:20;100108.30;;;10.47;89.88
35848;BME280;22332;51.954;20.118;2024-02-28T03:03:26;100105.59;;;10.46;89.95
35848;BME280;22332;51.954;20.118;2024-02-28T03:06:31;100101.79;;;10.46;89.94
35848;BME280;22332;51.954;20.118;2024-02-28T03:09:37;100097.80;;;10.47;90.10
35848;BME280;22332;51.954;20.118;2024-02-28T03:12:43;100094.24;;;10.45;89.92
35848;BME280;22332;51.954;20.118;2024-02-28T03:15:48;100097.63;;;10.43;89.92
35848;BME280;22332;51.954;20.118;2024-02-28T03:18:54;100091.88;;;10.40;89.73
35848;BME280;22332;51.954;20.118;2024-02-28T03:22:00;100093.15;;;10.36;89.80
35848;BME280;22332;51.954;20.118;2024-02-28T03:25:09;100095.25;;;10.35;89.91
35848;BME280;22332;51.954;20.118;2024-02-28T03:28:14;100095.27;;;10.31;89.68
35848;BME280;22332;51.954;20.118;2024-02-28T03:31:20;100098.69;;;10.29;89.84
35848;BME280;22332;51.954;20.118;2024-02-28T03:34:26;100105.30;;;10.29;89.59
35848;BME280;22332;51.954;20.118;2024-02-28T03:37:31;100102.19;;;10.28;89.92
35848;BME280;22332;51.954;20.118;2024-02-28T03:40:37;100101.44;;;10.17;89.64
35848;BME280;22332;51.954;20.118;2024-02-28T03:43:42;100107.12;;;9.99;89.91
35848;BME280;22332;51.954;20.118;2024-02-28T03:46:48;100109.76;;;9.93;90.50
35848;BME280;22332;51.954;20.118;2024-02-28T03:49:54;100112.95;;;9.96;90.49
35848;BME280;22332;51.954;20.118;2024-02-28T03:53:01;100109.58;;;10.02;90.30
35848;BME280;22332;51.954;20.118;2024-02-28T03:56:07;100108.80;;;10.06;90.26
35848;BME280;22332;51.954;20.118;2024-02-28T03:59:13;100106.09;;;10.07;90.17
35848;BME280;22332;51.954;20.118;2024-02-28T04:02:18;100105.76;;;10.04;90.40
35848;BME280;22332;51.954;20.118;2024-02-28T04:05:24;100107.36;;;10.08;90.30
35848;BME280;22332;51.954;20.118;2024-02-28T04:08:29;100099.71;;;10.10;90.30
35848;BME280;22332;51.954;20.118;2024-02-28T04:11:36;100099.09;;;10.11;90.13
35848;BME280;22332;51.954;20.118;2024-02-28T04:14:42;100102.61;;;10.09;90.20
35848;BME280;22332;51.954;20.118;2024-02-28T04:17:47;100101.72;;;10.07;90.13
35848;BME280;22332;51.954;20.118;2024-02-28T04:20:53;100104.86;;;10.04;89.90
35848;BME280;22332;51.954;20.118;2024-02-28T04:23:58;100109.41;;;10.02;90.03
35848;BME280;22332;51.954;20.118;2024-02-28T04:27:05;100112.64;;;10.01;90.18
35848;BME280;22332;51.954;20.118;2024-02-28T04:30:14;100118.25;;;10.00;89.81
35848;BME280;22332;51.954;20.118;2024-02-28T04:33:20;100117.52;;;9.99;90.08
35848;BME280;22332;51.954;20.118;2024-02-28T04:36:25;100120.94;;;9.98;89.79
35848;BME280;22332;51.954;20.118;2024-02-28T04:39:31;100125.48;;;9.97;90.06
35848;BME280;22332;51.954;20.118;2024-02-28T04:42:36;100132.85;;;9.86;89.98
35848;BME280;22332;51.954;20.118;2024-02-28T04:45:42;100137.63;;;9.73;90.14
35848;BME280;22332;51.954;20.118;2024-02-28T04:48:50;100141.80;;;9.76;90.32
35848;BME280;22332;51.954;20.118;2024-02-28T04:51:56;100147.80;;;9.78;90.25
35848;BME280;22332;51.954;20.118;2024-02-28T04:55:03;100148.13;;;9.80;90.28
35848;BME280;22332;51.954;20.118;2024-02-28T04:58:09;100150.70;;;9.83;90.39
35848;BME280;22332;51.954;20.118;2024-02-28T05:01:14;100152.30;;;9.83;90.44
35848;BME280;22332;51.954;20.118;2024-02-28T05:04:20;100158.65;;;9.83;90.14
35848;BME280;22332;51.954;20.118;2024-02-28T05:07:26;100161.41;;;9.84;90.33
35848;BME280;22332;51.954;20.118;2024-02-28T05:10:32;100168.12;;;9.87;90.26
35848;BME280;22332;51.954;20.118;2024-02-28T05:14:10;100171.52;;;9.88;90.27
35848;BME280;22332;51.954;20.118;2024-02-28T05:17:34;100176.67;;;9.92;90.01
35848;BME280;22332;51.954;20.118;2024-02-28T05:20:43;100174.88;;;9.92;90.31
35848;BME280;22332;51.954;20.118;2024-02-28T05:23:48;100177.33;;;9.91;90.13
35848;BME280;22332;51.954;20.118;2024-02-28T05:26:54;100177.22;;;9.86;89.87
35848;BME280;22332;51.954;20.118;2024-02-28T05:30:01;100177.75;;;9.86;90.48
35848;BME280;22332;51.954;20.118;2024-02-28T05:33:10;100176.33;;;9.90;90.36
35848;BME280;22332;51.954;20.118;2024-02-28T05:36:16;100176.95;;;9.92;90.10
35848;BME280;22332;51.954;20.118;2024-02-28T05:39:21;100178.34;;;9.95;90.04
35848;BME280;22332;51.954;20.118;2024-02-28T05:42:27;100180.54;;;9.94;90.18
35848;BME280;22332;51.954;20.118;2024-02-28T05:45:33;100184.13;;;9.94;89.99
35848;BME280;22332;51.954;20.118;2024-02-28T05:48:38;100184.48;;;9.94;90.12
35848;BME280;22332;51.954;20.118;2024-02-28T05:51:45;100180.41;;;9.95;90.26
35848;BME280;22332;51.954;20.118;2024-02-28T05:54:51;100178.91;;;9.98;90.19
35848;BME280;22332;51.954;20.118;2024-02-28T05:57:57;100183.20;;;9.99;90.11
35848;BME280;22332;51.954;20.118;2024-02-28T06:01:03;100183.89;;;10.01;90.54
35848;BME280;22332;51.954;20.118;2024-02-28T06:04:09;100186.41;;;10.03;90.30
35848;BME280;22332;51.954;20.118;2024-02-28T06:07:14;100190.48;;;10.03;90.32
35848;BME280;22332;51.954;20.118;2024-02-28T06:10:20;100187.51;;;9.97;90.51
35848;BME280;22332;51.954;20.118;2024-02-28T06:13:26;100192.97;;;9.96;91.03
35848;BME280;22332;51.954;20.118;2024-02-28T06:16:32;100196.30;;;10.04;90.80
35848;BME280;22332;51.954;20.118;2024-02-28T06:19:38;100200.90;;;10.11;91.03
35848;BME280;22332;51.954;20.118;2024-02-28T06:22:43;100199.34;;;10.16;90.75
35848;BME280;22332;51.954;20.118;2024-02-28T06:25:49;100199.58;;;10.22;90.99
35848;BME280;22332;51.954;20.118;2024-02-28T06:28:54;100201.96;;;10.33;91.28
35848;BME280;22332;51.954;20.118;2024-02-28T06:32:05;100204.25;;;10.42;91.40
35848;BME280;22332;51.954;20.118;2024-02-28T06:35:11;100204.33;;;10.50;91.49
35848;BME280;22332;51.954;20.118;2024-02-28T06:38:17;100211.29;;;10.61;91.36
35848;BME280;22332;51.954;20.118;2024-02-28T06:41:23;100211.66;;;10.71;91.61
35848;BME280;22332;51.954;20.118;2024-02-28T06:44:28;100214.30;;;10.82;91.80
35848;BME280;22332;51.954;20.118;2024-02-28T06:47:34;100215.79;;;10.92;91.61
35848;BME280;22332;51.954;20.118;2024-02-28T06:50:40;100218.59;;;11.01;91.77
35848;BME280;22332;51.954;20.118;2024-02-28T06:53:46;100217.96;;;11.09;91.61
35848;BME280;22332;51.954;20.118;2024-02-28T06:56:52;100222.61;;;11.14;91.62
35848;BME280;22332;51.954;20.118;2024-02-28T06:59:58;100224.77;;;11.17;91.77
35848;BME280;22332;51.954;20.118;2024-02-28T07:03:04;100226.13;;;11.22;92.29
35848;BME280;22332;51.954;20.118;2024-02-28T07:06:11;100227.95;;;11.28;91.93
35848;BME280;22332;51.954;20.118;2024-02-28T07:09:16;100231.80;;;11.35;92.23
35848;BME280;22332;51.954;20.118;2024-02-28T07:12:22;100232.11;;;11.43;92.04
35848;BME280;22332;51.954;20.118;2024-02-28T07:15:29;100237.03;;;11.50;92.32
35848;BME280;22332;51.954;20.118;2024-02-28T07:18:34;100232.77;;;11.57;92.16
35848;BME280;22332;51.954;20.118;2024-02-28T07:21:40;100232.79;;;11.66;92.17
35848;BME280;22332;51.954;20.118;2024-02-28T07:24:46;100232.92;;;11.74;92.10
35848;BME280;22332;51.954;20.118;2024-02-28T07:27:51;100237.98;;;11.84;92.36
35848;BME280;22332;51.954;20.118;2024-02-28T07:30:57;100241.70;;;11.95;92.15
35848;BME280;22332;51.954;20.118;2024-02-28T07:34:02;100244.98;;;12.03;92.16
35848;BME280;22332;51.954;20.118;2024-02-28T07:37:09;100245.50;;;12.08;92.23
35848;BME280;22332;51.954;20.118;2024-02-28T07:40:16;100248.79;;;12.12;92.05
35848;BME280;22332;51.954;20.118;2024-02-28T07:43:22;100249.23;;;12.14;92.04
35848;BME280;22332;51.954;20.118;2024-02-28T07:46:28;100254.80;;;12.16;92.19
35848;BME280;22332;51.954;20.118;2024-02-28T07:49:33;100254.95;;;12.19;92.29
35848;BME280;22332;51.954;20.118;2024-02-28T07:52:39;100259.04;;;12.23;92.23
35848;BME280;22332;51.954;20.118;2024-02-28T07:55:45;100261.92;;;12.26;92.17
35848;BME280;22332;51.954;20.118;2024-02-28T07:58:51;100261.30;;;12.28;92.03
35848;BME280;22332;51.954;20.118;2024-02-28T08:01:56;100261.56;;;12.29;92.10
35848;BME280;22332;51.954;20.118;2024-02-28T08:05:02;100270.92;;;12.30;92.10
35848;BME280;22332;51.954;20.118;2024-02-28T08:08:08;100268.09;;;12.33;92.21
35848;BME280;22332;51.954;20.118;2024-02-28T08:11:13;100269.61;;;12.34;91.93
35848;BME280;22332;51.954;20.118;2024-02-28T08:14:19;100272.98;;;12.33;92.01
35848;BME280;22332;51.954;20.118;2024-02-28T08:17:25;100266.88;;;12.31;92.10
35848;BME280;22332;51.954;20.118;2024-02-28T08:20:31;100272.02;;;12.35;92.10
35848;BME280;22332;51.954;20.118;2024-02-28T08:23:36;100272.88;;;12.37;91.98
35848;BME280;22332;51.954;20.118;2024-02-28T08:26:42;100272.39;;;12.42;92.15
35848;BME280;22332;51.954;20.118;2024-02-28T08:29:48;100275.27;;;12.46;92.06
35848;BME280;22332;51.954;20.118;2024-02-28T08:32:54;100280.40;;;12.48;92.04
35848;BME280;22332;51.954;20.118;2024-02-28T08:35:59;100280.02;;;12.49;91.82
35848;BME280;22332;51.954;20.118;2024-02-28T08:39:05;100282.02;;;12.45;91.90
35848;BME280;22332;51.954;20.118;2024-02-28T08:42:13;100281.42;;;12.42;91.89
35848;BME280;22332;51.954;20.118;2024-02-28T08:45:19;100282.36;;;12.42;92.11
35848;BME280;22332;51.954;20.118;2024-02-28T08:48:25;100278.17;;;12.42;92.06
35848;BME280;22332;51.954;20.118;2024-02-28T08:51:30;100278.52;;;12.44;92.10
35848;BME280;22332;51.954;20.118;2024-02-28T08:54:36;100281.54;;;12.46;92.04
35848;BME280;22332;51.954;20.118;2024-02-28T08:57:42;100282.77;;;12.48;92.07
35848;BME280;22332;51.954;20.118;2024-02-28T09:00:50;100278.45;;;12.48;92.12
35848;BME280;22332;51.954;20.118;2024-02-28T09:03:55;100278.46;;;12.47;91.86
35848;BME280;22332;51.954;20.118;2024-02-28T09:07:01;100277.12;;;12.46;92.02
35848;BME280;22332;51.954;20.118;2024-02-28T09:10:08;100277.98;;;12.48;91.92
35848;BME280;22332;51.954;20.118;2024-02-28T09:13:13;100277.46;;;12.51;91.87
35848;BME280;22332;51.954;20.118;2024-02-28T09:16:19;100276.19;;;12.57;91.90
35848;BME280;22332;51.954;20.118;2024-02-28T09:19:25;100278.48;;;12.63;91.76
35848;BME280;22332;51.954;20.118;2024-02-28T09:22:30;100278.27;;;12.64;91.88
35848;BME280;22332;51.954;20.118;2024-02-28T09:25:36;100282.23;;;12.68;91.99
35848;BME280;22332;51.954;20.118;2024-02-28T09:28:42;100283.91;;;12.72;92.03
35848;BME280;22332;51.954;20.118;2024-02-28T09:31:47;100286.59;;;12.74;91.87
35848;BME280;22332;51.954;20.118;2024-02-28T09:34:53;100288.56;;;12.77;91.96
35848;BME280;22332;51.954;20.118;2024-02-28T09:37:58;100289.57;;;12.81;91.81
35848;BME280;22332;51.954;20.118;2024-02-28T09:41:04;100288.52;;;12.82;91.63
35848;BME280;22332;51.954;20.118;2024-02-28T09:44:10;100288.59;;;12.82;91.66
35848;BME280;22332;51.954;20.118;2024-02-28T09:47:16;100290.07;;;12.85;91.66
35848;BME280;22332;51.954;20.118;2024-02-28T09:50:23;100292.04;;;12.89;91.49
35848;BME280;22332;51.954;20.118;2024-02-28T09:53:29;100296.30;;;12.90;91.37
35848;BME280;22332;51.954;20.118;2024-02-28T09:56:34;100298.10;;;12.88;91.28
35848;BME280;22332;51.954;20.118;2024-02-28T09:59:41;100305.21;;;12.83;91.24
35848;BME280;22332;51.954;20.118;2024-02-28T10:02:48;100307.01;;;12.78;91.13
35848;BME280;22332;51.954;20.118;2024-02-28T10:05:54;100311.83;;;12.73;91.16
35848;BME280;22332;51.954;20.118;2024-02-28T10:09:00;100318.52;;;12.69;91.26
35848;BME280;22332;51.954;20.118;2024-02-28T10:12:06;100317.23;;;12.65;91.17
35848;BME280;22332;51.954;20.118;2024-02-28T10:15:12;100322.11;;;12.59;91.05
35848;BME280;22332;51.954;20.118;2024-02-28T10:18:18;100322.81;;;12.56;91.16
35848;BME280;22332;51.954;20.118;2024-02-28T10:21:23;100322.76;;;12.51;91.02
35848;BME280;22332;51.954;20.118;2024-02-28T10:24:30;100329.50;;;12.33;90.85
35848;BME280;22332;51.954;20.118;2024-02-28T10:27:38;100334.22;;;12.07;91.18
35848;BME280;22332;51.954;20.118;2024-02-28T10:30:43;100337.81;;;11.91;91.75
35848;BME280;22332;51.954;20.118;2024-02-28T10:33:49;100332.16;;;11.80;91.21
35848;BME280;22332;51.954;20.118;2024-02-28T10:36:55;100335.75;;;11.69;91.46
35848;BME280;22332;51.954;20.118;2024-02-28T10:40:02;100336.79;;;11.70;91.51
35848;BME280;22332;51.954;20.118;2024-02-28T10:43:09;100336.55;;;11.68;91.35
35848;BME280;22332;51.954;20.118;2024-02-28T10:46:15;100342.00;;;11.60;91.44
35848;BME280;22332;51.954;20.118;2024-02-28T10:49:21;100342.45;;;11.47;91.57
35848;BME280;22332;51.954;20.118;2024-02-28T10:52:28;100346.73;;;11.37;91.62
35848;BME280;22332;51.954;20.118;2024-02-28T10:55:39;100349.02;;;11.26;91.88
35848;BME280;22332;51.954;20.118;2024-02-28T10:58:51;100349.41;;;11.17;91.71
35848;BME280;22332;51.954;20.118;2024-02-28T11:01:56;100350.67;;;11.08;91.82
35848;BME280;22332;51.954;20.118;2024-02-28T11:05:01;100352.19;;;10.97;92.21
35848;BME280;22332;51.954;20.118;2024-02-28T11:08:09;100353.21;;;10.86;92.29
35848;BME280;22332;51.954;20.118;2024-02-28T11:11:16;100355.20;;;10.77;92.55
35848;BME280;22332;51.954;20.118;2024-02-28T11:14:22;100359.45;;;10.68;92.69
35848;BME280;22332;51.954;20.118;2024-02-28T11:17:30;100362.70;;;10.64;92.67
35848;BME280;22332;51.954;20.118;2024-02-28T11:20:36;100360.69;;;10.59;92.68
35848;BME280;22332;51.954;20.118;2024-02-28T11:23:42;100367.48;;;10.60;92.84
35848;BME280;22332;51.954;20.118;2024-02-28T11:26:51;100367.67;;;10.55;93.23
35848;BME280;22332;51.954;20.118;2024-02-28T11:29:57;100367.67;;;10.48;93.48
35848;BME280;22332;51.954;20.118;2024-02-28T11:33:02;100363.38;;;10.39;93.89
35848;BME280;22332;51.954;20.118;2024-02-28T11:36:09;100361.69;;;10.34;94.16
35848;BME280;22332;51.954;20.118;2024-02-28T11:39:17;100359.63;;;10.28;94.41
35848;BME280;22332;51.954;20.118;2024-02-28T11:42:24;100363.61;;;10.31;95.21
35848;BME280;22332;51.954;20.118;2024-02-28T11:45:29;100364.83;;;10.40;94.59
35848;BME280;22332;51.954;20.118;2024-02-28T11:48:35;100372.35;;;10.49;94.09
35848;BME280;22332;51.954;20.118;2024-02-28T11:51:42;100370.73;;;10.47;93.90
35848;BME280;22332;51.954;20.118;2024-02-28T11:54:48;100377.21;;;10.45;93.69
35848;BME280;22332;51.954;20.118;2024-02-28T11:57:54;100376.86;;;10.45;93.89
35848;BME280;22332;51.954;20.118;2024-02-28T12:01:00;100377.11;;;10.42;93.79
35848;BME280;22332;51.954;20.118;2024-02-28T12:04:06;100376.34;;;10.34;94.13
35848;BME280;22332;51.954;20.118;2024-02-28T12:07:12;100376.63;;;10.25;94.13
35848;BME280;22332;51.954;20.118;2024-02-28T12:10:18;100380.82;;;10.23;94.40
35848;BME280;22332;51.954;20.118;2024-02-28T12:13:24;100378.92;;;10.21;94.44
35848;BME280;22332;51.954;20.118;2024-02-28T12:16:31;100382.17;;;10.22;94.65
35848;BME280;22332;51.954;20.118;2024-02-28T12:19:37;100386.72;;;10.18;94.36
35848;BME280;22332;51.954;20.118;2024-02-28T12:22:44;100386.86;;;10.11;94.33
35848;BME280;22332;51.954;20.118;2024-02-28T12:25:49;100388.41;;;10.07;94.53
35848;BME280;22332;51.954;20.118;2024-02-28T12:28:55;100390.34;;;10.09;94.60
35848;BME280;22332;51.954;20.118;2024-02-28T12:32:01;100390.30;;;10.01;94.08
35848;BME280;22332;51.954;20.118;2024-02-28T12:35:08;100400.39;;;9.94;94.48
35848;BME280;22332;51.954;20.118;2024-02-28T12:38:17;100398.48;;;9.81;94.30
35848;BME280;22332;51.954;20.118;2024-02-28T12:41:29;100400.71;;;9.79;95.09
35848;BME280;22332;51.954;20.118;2024-02-28T12:44:35;100400.90;;;9.73;94.74
35848;BME280;22332;51.954;20.118;2024-02-28T12:47:41;100403.24;;;9.65;95.38
35848;BME280;22332;51.954;20.118;2024-02-28T12:50:47;100399.34;;;9.59;95.77
35848;BME280;22332;51.954;20.118;2024-02-28T12:53:53;100399.82;;;9.54;95.96
35848;BME280;22332;51.954;20.118;2024-02-28T12:57:00;100397.27;;;9.53;95.99
35848;BME280;22332;51.954;20.118;2024-02-28T13:00:10;100400.83;;;9.53;95.11
35848;BME280;22332;51.954;20.118;2024-02-28T13:03:15;100403.18;;;9.54;95.53
35848;BME280;22332;51.954;20.118;2024-02-28T13:06:22;100407.63;;;9.56;95.37
35848;BME280;22332;51.954;20.118;2024-02-28T13:09:27;100413.07;;;9.59;95.15
35848;BME280;22332;51.954;20.118;2024-02-28T13:12:33;100409.44;;;9.63;95.54
35848;BME280;22332;51.954;20.118;2024-02-28T13:15:39;100411.25;;;9.59;95.38
35848;BME280;22332;51.954;20.118;2024-02-28T13:18:46;100407.64;;;9.54;95.29
35848;BME280;22332;51.954;20.118;2024-02-28T13:21:51;100405.94;;;9.55;95.46
35848;BME280;22332;51.954;20.118;2024-02-28T13:24:57;100410.47;;;9.56;95.26
35848;BME280;22332;51.954;20.118;2024-02-28T13:28:03;100411.20;;;9.50;95.40
35848;BME280;22332;51.954;20.118;2024-02-28T13:31:08;100408.83;;;9.43;95.33
35848;BME280;22332;51.954;20.118;2024-02-28T13:34:14;100406.60;;;9.36;96.00
35848;BME280;22332;51.954;20.118;2024-02-28T13:37:20;100411.61;;;9.44;95.86
35848;BME280;22332;51.954;20.118;2024-02-28T13:40:25;100412.22;;;9.51;95.98
35848;BME280;22332;51.954;20.118;2024-02-28T13:43:34;100411.85;;;9.57;95.67
35848;BME280;22332;51.954;20.118;2024-02-28T13:46:46;100416.60;;;9.63;95.56
35848;BME280;22332;51.954;20.118;2024-02-28T13:49:51;100415.19;;;9.70;95.62
35848;BME280;22332;51.954;20.118;2024-02-28T13:52:57;100420.43;;;9.69;95.28
35848;BME280;22332;51.954;20.118;2024-02-28T13:56:03;100424.27;;;9.72;95.29
35848;BME280;22332;51.954;20.118;2024-02-28T13:59:09;100426.86;;;9.78;95.10
35848;BME280;22332;51.954;20.118;2024-02-28T14:02:15;100429.86;;;9.80;95.06
35848;BME280;22332;51.954;20.118;2024-02-28T14:05:21;100428.39;;;9.75;95.12
35848;BME280;22332;51.954;20.118;2024-02-28T14:08:27;100431.54;;;9.70;95.07
35848;BME280;22332;51.954;20.118;2024-02-28T14:11:32;100432.23;;;9.69;95.12
35848;BME280;22332;51.954;20.118;2024-02-28T14:14:38;100437.88;;;9.71;95.18
35848;BME280;22332;51.954;20.118;2024-02-28T14:17:44;100438.60;;;9.72;95.34
35848;BME280;22332;51.954;20.118;2024-02-28T14:20:49;100439.48;;;9.74;95.56
35848;BME280;22332;51.954;20.118;2024-02-28T14:23:55;100439.93;;;9.70;95.38
35848;BME280;22332;51.954;20.118;2024-02-28T14:27:05;100439.20;;;9.66;95.43
35848;BME280;22332;51.954;20.118;2024-02-28T14:30:12;100441.95;;;9.59;95.49
35848;BME280;22332;51.954;20.118;2024-02-28T14:33:18;100445.71;;;9.59;95.57
35848;BME280;22332;51.954;20.118;2024-02-28T14:36:23;100446.67;;;9.60;95.64
35848;BME280;22332;51.954;20.118;2024-02-28T14:39:29;100447.95;;;9.58;95.81
35848;BME280;22332;51.954;20.118;2024-02-28T14:42:35;100444.26;;;9.57;95.80
35848;BME280;22332;51.954;20.118;2024-02-28T14:45:41;100443.83;;;9.62;95.78
35848;BME280;22332;51.954;20.118;2024-02-28T14:48:47;100453.64;;;9.61;95.79
35848;BME280;22332;51.954;20.118;2024-02-28T14:51:56;100457.56;;;9.63;95.92
35848;BME280;22332;51.954;20.118;2024-02-28T14:55:01;100464.39;;;9.67;96.17
35848;BME280;22332;51.954;20.118;2024-02-28T14:58:08;100465.16;;;9.52;96.03
35848;BME280;22332;51.954;20.118;2024-02-28T15:01:13;100472.67;;;9.44;96.13
35848;BME280;22332;51.954;20.118;2024-02-28T15:04:20;100477.15;;;9.41;96.58
35848;BME280;22332;51.954;20.118;2024-02-28T15:07:25;100475.08;;;9.35;96.91
35848;BME280;22332;51.954;20.118;2024-02-28T15:10:31;100487.42;;;9.38;96.50
35848;BME280;22332;51.954;20.118;2024-02-28T15:13:37;100489.20;;;9.32;97.45
35848;BME280;22332;51.954;20.118;2024-02-28T15:16:43;100490.49;;;9.24;97.43
35848;BME280;22332;51.954;20.118;2024-02-28T15:19:48;100490.38;;;9.21;97.02
35848;BME280;22332;51.954;20.118;2024-02-28T15:22:54;100489.87;;;9.20;97.13
35848;BME280;22332;51.954;20.118;2024-02-28T15:26:00;100498.02;;;9.21;97.29
35848;BME280;22332;51.954;20.118;2024-02-28T15:29:06;100496.63;;;9.19;96.99
35848;BME280;22332;51.954;20.118;2024-02-28T15:32:12;100500.40;;;9.14;97.28
35848;BME280;22332;51.954;20.118;2024-02-28T15:35:18;100502.08;;;9.11;97.03
35848;BME280;22332;51.954;20.118;2024-02-28T15:38:26;100503.86;;;9.13;97.35
35848;BME280;22332;51.954;20.118;2024-02-28T15:41:32;100505.46;;;9.15;97.35
35848;BME280;22332;51.954;20.118;2024-02-28T15:44:38;100505.34;;;9.18;96.97
35848;BME280;22332;51.954;20.118;2024-02-28T15:47:54;100506.38;;;9.19;97.04
35848;BME280;22332;51.954;20.118;2024-02-28T15:51:05;100510.65;;;9.14;97.05
35848;BME280;22332;51.954;20.118;2024-02-28T15:54:11;100509.36;;;9.11;97.23
35848;BME280;22332;51.954;20.118;2024-02-28T15:57:16;100511.63;;;9.13;96.94
35848;BME280;22332;51.954;20.118;2024-02-28T16:00:22;100513.46;;;9.15;97.08
35848;BME280;22332;51.954;20.118;2024-02-28T16:03:27;100512.83;;;9.06;97.20